Alvord, Iowa
Current Conditions -  °F | °C
As of 8:14 AM on Saturday 20 Dec 2014 (Local Time) from KLYV Reporting Station
Haze Haze  
Wind Chill: 24°   Ceiling: 400
Heat Index: 32°   Visibility: 1.7mi
Dew Point: 30°   Wind: 9mph
Humidity: 93%   Direction: 190°S
Pressure: 30.08"   Gusts: NA
Location:  43.34°N, 96.3°W
Report Text: KLYV 201414Z AUTO 19008KT 1 3/4SM BR OVC004 00/M01 A3008 RMK AO2
Loading
Personal Weather Stations






























Interactive Weather Map New forecast layout! Learn more

10-Day Weather Forecast

Advertisements
Track Severe Weather on mobile